createdAt,value
2023-04-18T00:01:51.918Z,12.96
2023-04-18T00:04:24.934Z,13.62
2023-04-18T00:06:53.373Z,13.59
2023-04-18T00:09:20.380Z,13.40
2023-04-18T00:11:47.071Z,13.67
2023-04-18T00:14:30.862Z,13.65
2023-04-18T00:17:18.354Z,13.70
2023-04-18T00:19:45.645Z,13.67
2023-04-18T00:22:13.381Z,13.69
2023-04-18T00:24:45.988Z,13.21
2023-04-18T00:27:28.262Z,13.68
2023-04-18T00:30:08.874Z,13.74
2023-04-18T00:32:35.957Z,13.51
2023-04-18T00:35:17.562Z,13.71
2023-04-18T00:37:44.391Z,13.79
2023-04-18T00:40:22.719Z,13.20
2023-04-18T00:44:22.349Z,13.90
2023-04-18T00:45:54.272Z,13.76
2023-04-18T00:48:37.921Z,13.51
2023-04-18T00:51:09.691Z,13.48
2023-04-18T00:53:53.631Z,13.52
2023-04-18T00:56:30.989Z,13.86
2023-04-18T00:59:13.544Z,13.76
2023-04-18T01:01:43.803Z,13.03
2023-04-18T01:04:18.295Z,13.84
2023-04-18T01:07:08.503Z,13.86
2023-04-18T01:09:48.068Z,13.84
2023-04-18T01:12:14.824Z,13.79
2023-04-18T01:17:58.655Z,13.59
2023-04-18T01:20:26.421Z,13.37
2023-04-18T01:22:53.581Z,13.69
2023-04-18T01:25:41.278Z,13.72
2023-04-18T01:28:15.184Z,13.96
2023-04-18T01:30:46.797Z,13.64
2023-04-18T01:33:18.479Z,13.89
2023-04-18T01:35:53.851Z,13.76
2023-04-18T01:38:20.639Z,13.89
2023-04-18T01:41:06.576Z,13.90
2023-04-18T01:43:37.271Z,13.93
2023-04-18T01:46:25.419Z,13.85
2023-04-18T01:49:13.585Z,13.96
2023-04-18T01:51:55.252Z,13.90
2023-04-18T01:54:23.449Z,13.95
2023-04-18T01:56:50.286Z,14.08
2023-04-18T01:59:26.266Z,14.02
2023-04-18T02:01:53.114Z,14.06
2023-04-18T02:04:19.912Z,14.07
2023-04-18T02:06:46.964Z,14.06
2023-04-18T02:09:13.791Z,14.08
2023-04-18T02:11:40.566Z,13.99
2023-04-18T02:14:15.715Z,13.79
2023-04-18T02:16:45.876Z,14.22
2023-04-18T02:19:17.969Z,14.14
2023-04-18T02:21:47.468Z,14.13
2023-04-18T02:24:14.552Z,13.96
2023-04-18T02:26:44.633Z,13.04
2023-04-18T02:32:05.883Z,13.87
2023-04-18T02:34:33.782Z,14.04
2023-04-18T02:37:03.036Z,13.96
2023-04-18T02:39:30.300Z,13.94
2023-04-18T02:41:57.155Z,14.02
2023-04-18T02:44:29.910Z,13.86
2023-04-18T02:47:02.646Z,13.75
2023-04-18T02:49:35.415Z,13.37
2023-04-18T02:52:07.868Z,13.80
2023-04-18T02:54:37.613Z,13.85
2023-04-18T02:57:04.340Z,13.83
2023-04-18T02:59:33.696Z,13.88
2023-04-18T03:02:07.358Z,13.78
2023-04-18T03:04:34.195Z,13.72
2023-04-18T03:07:01.097Z,13.68
2023-04-18T03:09:28.299Z,13.79
2023-04-18T03:11:58.118Z,13.44
2023-04-18T03:14:24.971Z,13.82
2023-04-18T03:16:55.578Z,13.81
2023-04-18T03:19:22.452Z,13.55
2023-04-18T03:21:59.152Z,13.46
2023-04-18T03:24:28.710Z,13.59
2023-04-18T03:26:55.766Z,13.55
2023-04-18T03:29:32.398Z,13.53
2023-04-18T03:32:01.825Z,13.46
2023-04-18T03:34:28.758Z,13.67
2023-04-18T03:36:59.748Z,12.83
2023-04-18T03:39:26.463Z,13.62
2023-04-18T03:41:54.602Z,13.58
2023-04-18T03:44:24.492Z,13.20
2023-04-18T03:46:57.176Z,13.45
2023-04-18T03:49:24.658Z,13.60
2023-04-18T03:51:52.164Z,13.49
2023-04-18T03:54:19.331Z,13.53
2023-04-18T03:56:46.477Z,13.56
2023-04-18T03:59:14.686Z,13.55
2023-04-18T04:01:46.987Z,13.41
2023-04-18T04:04:18.037Z,13.42
2023-04-18T04:06:51.475Z,13.42
2023-04-18T04:09:20.213Z,13.39
2023-04-18T04:11:50.104Z,13.43
2023-04-18T04:14:25.420Z,13.39
2023-04-18T04:17:04.763Z,13.32
2023-04-18T04:19:31.453Z,13.31
2023-04-18T04:21:58.188Z,12.72
2023-04-18T04:24:33.121Z,13.28
2023-04-18T04:29:52.329Z,13.38
2023-04-18T04:32:20.457Z,13.26
2023-04-18T04:34:47.591Z,13.22
2023-04-18T04:37:35.791Z,13.13
2023-04-18T04:40:06.586Z,13.34
2023-04-18T04:42:35.939Z,13.12
2023-04-18T04:45:03.799Z,13.34
2023-04-18T04:47:48.074Z,13.09
2023-04-18T04:50:34.212Z,12.96
2023-04-18T04:53:02.972Z,12.95
2023-04-18T04:55:33.247Z,13.19
2023-04-18T04:58:00.315Z,13.24
2023-04-18T05:00:34.307Z,13.19
2023-04-18T05:03:02.287Z,12.67
2023-04-18T05:05:37.139Z,13.29
2023-04-18T05:08:04.278Z,13.40
2023-04-18T05:10:32.522Z,13.00
2023-04-18T05:12:59.396Z,13.32
2023-04-18T05:15:29.311Z,13.26
2023-04-18T05:18:19.218Z,13.25
2023-04-18T05:20:48.930Z,13.41
2023-04-18T05:23:16.870Z,13.28
2023-04-18T05:25:49.712Z,13.32
2023-04-18T05:28:18.916Z,13.43
2023-04-18T05:30:48.921Z,13.37
2023-04-18T05:33:16.070Z,13.32
2023-04-18T05:35:47.944Z,13.53
2023-04-18T05:38:14.611Z,13.49
2023-04-18T05:40:42.650Z,13.46
2023-04-18T05:43:11.528Z,13.56
2023-04-18T05:45:40.071Z,13.49
2023-04-18T05:48:07.973Z,13.43
2023-04-18T05:50:37.672Z,12.96
2023-04-18T05:53:04.545Z,13.12
2023-04-18T05:55:40.744Z,13.17
2023-04-18T05:58:21.018Z,13.23
2023-04-18T06:00:58.147Z,13.84
2023-04-18T06:03:27.063Z,13.95
2023-04-18T06:05:55.935Z,13.88
2023-04-18T06:08:22.787Z,14.05
2023-04-18T06:10:54.869Z,14.12
2023-04-18T06:13:27.531Z,14.38
2023-04-18T06:15:54.379Z,14.25
2023-04-18T06:18:21.483Z,14.14
2023-04-18T06:20:48.281Z,14.48
2023-04-18T06:23:15.172Z,14.50
2023-04-18T06:25:45.017Z,14.23
2023-04-18T06:28:17.662Z,14.63
2023-04-18T06:30:44.454Z,14.55
2023-04-18T06:33:36.864Z,14.69
2023-04-18T06:36:05.810Z,14.57
2023-04-18T06:38:41.017Z,13.97
2023-04-18T06:41:10.762Z,13.66
2023-04-18T06:43:49.177Z,13.77
2023-04-18T06:46:32.777Z,14.61
2023-04-18T06:49:04.537Z,14.61
2023-04-18T06:51:35.732Z,14.66
2023-04-18T06:54:05.024Z,14.67
2023-04-18T06:56:33.056Z,14.82
2023-04-18T06:59:01.440Z,14.57
2023-04-18T07:01:33.562Z,14.99
2023-04-18T07:04:13.138Z,14.69
2023-04-18T07:06:40.486Z,15.09
2023-04-18T07:09:10.210Z,15.08
2023-04-18T07:11:43.975Z,15.04
2023-04-18T07:14:17.007Z,15.12
2023-04-18T07:16:44.618Z,15.36
2023-04-18T07:19:13.965Z,15.42
2023-04-18T07:21:48.690Z,15.56
2023-04-18T07:24:27.909Z,15.59
2023-04-18T07:26:55.150Z,15.60
2023-04-18T07:29:22.081Z,15.67
2023-04-18T07:32:01.810Z,15.57
2023-04-18T07:34:38.289Z,15.62
2023-04-18T07:37:08.200Z,15.62
2023-04-18T07:42:20.045Z,15.48
2023-04-18T07:47:30.201Z,15.78
2023-04-18T07:50:07.586Z,15.87
2023-04-18T07:52:34.767Z,15.94
2023-04-18T07:55:04.017Z,15.80
2023-04-18T07:57:34.043Z,15.48
2023-04-18T08:00:02.476Z,16.25
2023-04-18T08:02:36.622Z,16.26
2023-04-18T08:05:09.582Z,16.27
2023-04-18T08:07:42.362Z,16.29
2023-04-18T08:10:23.746Z,16.36
2023-04-18T08:12:50.800Z,16.38
2023-04-18T08:15:17.553Z,16.41
2023-04-18T08:17:45.474Z,16.26
2023-04-18T08:20:13.053Z,16.43
2023-04-18T08:23:04.258Z,16.49
2023-04-18T08:25:37.689Z,16.40
2023-04-18T08:28:07.586Z,16.66
2023-04-18T08:30:43.235Z,16.52
2023-04-18T08:33:10.125Z,17.05
2023-04-18T08:35:39.882Z,16.38
2023-04-18T08:38:12.228Z,17.32
2023-04-18T08:43:23.012Z,16.98
2023-04-18T08:45:50.506Z,17.59
2023-04-18T08:48:18.043Z,17.64
2023-04-18T08:50:48.373Z,17.69
2023-04-18T08:53:17.113Z,17.51
2023-04-18T08:55:44.588Z,17.45
2023-04-18T08:58:12.554Z,17.86
2023-04-18T09:00:43.116Z,17.66
2023-04-18T09:03:18.210Z,17.80
2023-04-18T09:06:08.489Z,17.75
2023-04-18T09:08:35.621Z,17.70
2023-04-18T09:11:29.518Z,17.97
2023-04-18T09:13:59.140Z,17.97
2023-04-18T09:16:50.331Z,18.27
2023-04-18T09:19:19.832Z,18.23
2023-04-18T09:21:49.619Z,18.12
2023-04-18T09:24:28.540Z,18.23
2023-04-18T09:26:57.254Z,18.45
2023-04-18T09:29:43.578Z,18.74
2023-04-18T09:32:25.877Z,18.55
2023-04-18T09:35:00.207Z,18.91
2023-04-18T09:37:29.516Z,18.63
2023-04-18T09:40:00.384Z,18.64
2023-04-18T09:42:36.206Z,18.75
2023-04-18T09:45:04.916Z,18.82
2023-04-18T09:47:35.578Z,18.86
2023-04-18T09:50:07.712Z,19.06
2023-04-18T09:52:38.902Z,19.00
2023-04-18T09:55:17.053Z,19.17
2023-04-18T09:57:46.414Z,19.55
2023-04-18T10:00:25.339Z,19.69
2023-04-18T10:03:05.309Z,19.57
2023-04-18T10:05:35.339Z,20.02
2023-04-18T10:08:06.018Z,20.16
2023-04-18T10:10:33.094Z,19.79
2023-04-18T10:13:02.350Z,20.59
2023-04-18T10:15:30.942Z,20.68
2023-04-18T10:18:06.802Z,20.92
2023-04-18T10:20:35.402Z,20.93
2023-04-18T10:23:28.355Z,21.00
2023-04-18T10:25:55.210Z,20.77
2023-04-18T10:28:22.114Z,20.90
2023-04-18T10:30:52.600Z,20.48
2023-04-18T10:33:35.288Z,20.78
2023-04-18T10:36:25.494Z,20.22
2023-04-18T10:39:24.361Z,20.69
2023-04-18T10:41:58.453Z,20.85
2023-04-18T10:44:25.757Z,20.83
2023-04-18T10:47:00.080Z,21.20
2023-04-18T10:49:38.224Z,21.19
2023-04-18T10:52:08.765Z,21.21
2023-04-18T10:54:38.926Z,21.26
2023-04-18T10:57:13.200Z,21.19
2023-04-18T10:59:52.340Z,21.10
2023-04-18T11:05:09.981Z,20.62
2023-04-18T11:07:51.156Z,20.95
2023-04-18T11:10:30.547Z,21.31
2023-04-18T11:13:04.429Z,21.66
2023-04-18T11:15:31.883Z,21.67
2023-04-18T11:18:11.030Z,21.93
2023-04-18T11:20:49.216Z,21.90
2023-04-18T11:23:25.629Z,21.68
2023-04-18T11:26:05.908Z,21.91
2023-04-18T11:28:38.750Z,21.86
2023-04-18T11:31:08.747Z,22.11
2023-04-18T11:33:38.212Z,22.58
2023-04-18T11:36:05.772Z,22.58
2023-04-18T11:38:32.650Z,22.51
2023-04-18T11:41:02.572Z,22.55
2023-04-18T11:43:29.687Z,22.26
2023-04-18T11:45:58.460Z,22.43
2023-04-18T11:48:36.783Z,22.24
2023-04-18T11:51:15.649Z,21.41
2023-04-18T11:53:42.620Z,21.82
2023-04-18T11:56:15.473Z,21.41
2023-04-18T11:58:45.348Z,21.39
2023-04-18T12:01:20.624Z,21.34
2023-04-18T12:04:08.366Z,20.85
2023-04-18T12:06:52.169Z,21.03
2023-04-18T12:09:27.118Z,20.94
2023-04-18T12:12:01.937Z,21.31
2023-04-18T12:14:34.379Z,21.25
2023-04-18T12:17:03.635Z,21.10
2023-04-18T12:19:34.312Z,20.81
2023-04-18T12:22:05.399Z,20.17
2023-04-18T12:24:34.753Z,20.97
2023-04-18T12:27:02.012Z,21.22
2023-04-18T12:29:31.696Z,21.06
2023-04-18T12:31:58.671Z,21.06
2023-04-18T12:34:31.112Z,20.93
2023-04-18T12:37:02.113Z,20.52
2023-04-18T12:39:29.283Z,20.69
2023-04-18T12:42:06.564Z,20.62
2023-04-18T12:44:37.860Z,20.43
2023-04-18T12:47:14.694Z,20.34
2023-04-18T12:49:43.970Z,20.65
2023-04-18T12:52:18.328Z,20.47
2023-04-18T12:54:45.116Z,20.45
2023-04-18T12:57:11.957Z,20.19
2023-04-18T12:59:52.214Z,20.60
2023-04-18T13:02:21.829Z,20.63
2023-04-18T13:04:49.496Z,20.54
2023-04-18T13:07:19.791Z,20.64
2023-04-18T13:09:46.696Z,20.84
2023-04-18T13:12:16.804Z,20.00
2023-04-18T13:14:47.878Z,20.75
2023-04-18T13:17:18.222Z,20.20
2023-04-18T13:19:45.042Z,21.21
2023-04-18T13:22:11.904Z,20.86
2023-04-18T13:24:44.540Z,21.02
2023-04-18T13:27:11.382Z,21.24
2023-04-18T13:29:45.754Z,21.25
2023-04-18T13:32:15.952Z,21.24
2023-04-18T13:34:52.641Z,21.28
2023-04-18T13:37:19.363Z,21.22
2023-04-18T13:39:46.554Z,21.21
2023-04-18T13:42:16.435Z,21.21
2023-04-18T13:44:45.676Z,20.99
2023-04-18T13:47:15.863Z,21.22
2023-04-18T13:49:45.910Z,21.06
2023-04-18T13:52:12.974Z,21.03
2023-04-18T13:54:41.382Z,20.79
2023-04-18T13:57:11.710Z,20.83
2023-04-18T13:59:40.623Z,20.68
2023-04-18T14:02:08.346Z,20.88
2023-04-18T14:04:38.157Z,20.66
2023-04-18T14:07:24.990Z,20.51
2023-04-18T14:10:01.410Z,20.72
2023-04-18T14:12:31.812Z,20.83
2023-04-18T14:15:05.981Z,20.83
2023-04-18T14:17:32.812Z,20.95
2023-04-18T14:20:00.535Z,20.99
2023-04-18T14:22:33.226Z,20.91
2023-04-18T14:25:03.069Z,20.79
2023-04-18T14:27:30.529Z,21.15
2023-04-18T14:29:57.175Z,21.00
2023-04-18T14:32:24.112Z,20.81
2023-04-18T14:35:05.807Z,20.63
2023-04-18T14:37:32.366Z,20.91
2023-04-18T14:40:07.798Z,20.83
2023-04-18T14:42:42.578Z,20.56
2023-04-18T14:45:13.979Z,20.51
2023-04-18T14:47:48.427Z,20.43
2023-04-18T14:51:09.865Z,20.48
2023-04-18T14:53:11.194Z,20.61
2023-04-18T14:55:44.758Z,20.37
2023-04-18T14:58:11.547Z,20.58
2023-04-18T15:00:38.189Z,20.60
2023-04-18T15:03:12.734Z,20.43
2023-04-18T15:05:48.427Z,20.35
2023-04-18T15:08:21.503Z,20.57
2023-04-18T15:10:53.965Z,20.65
2023-04-18T15:13:20.710Z,20.40
2023-04-18T15:16:02.052Z,20.39
2023-04-18T15:18:28.976Z,20.52
2023-04-18T15:21:02.994Z,20.28
2023-04-18T15:23:34.400Z,20.42
2023-04-18T15:26:01.850Z,20.25
2023-04-18T15:28:40.704Z,19.81
2023-04-18T15:31:07.826Z,20.17
2023-04-18T15:33:37.638Z,20.11
2023-04-18T15:36:04.447Z,20.14
2023-04-18T15:38:32.848Z,20.01
2023-04-18T15:41:00.103Z,19.42
2023-04-18T15:43:32.319Z,20.15
2023-04-18T15:45:59.422Z,20.04
2023-04-18T15:48:26.953Z,20.03
2023-04-18T15:50:53.653Z,19.99
2023-04-18T15:53:28.743Z,20.16
2023-04-18T15:55:59.913Z,20.03
2023-04-18T15:58:30.119Z,19.95
2023-04-18T16:01:02.778Z,19.98
2023-04-18T16:03:30.849Z,20.06
2023-04-18T16:05:57.890Z,19.66
2023-04-18T16:08:26.783Z,19.73
2023-04-18T16:11:10.628Z,19.91
2023-04-18T16:13:38.457Z,19.81
2023-04-18T16:16:09.544Z,19.66
2023-04-18T16:18:36.808Z,19.35
2023-04-18T16:21:08.097Z,19.68
2023-04-18T16:23:34.833Z,19.62
2023-04-18T16:26:06.746Z,19.80
2023-04-18T16:28:37.698Z,19.92
2023-04-18T16:31:10.124Z,19.67
2023-04-18T16:33:39.837Z,19.44
2023-04-18T16:36:09.908Z,19.61
2023-04-18T16:38:36.460Z,19.25
2023-04-18T16:41:03.684Z,19.39
2023-04-18T16:43:36.530Z,19.41
2023-04-18T16:46:12.113Z,19.12
2023-04-18T16:48:46.733Z,19.41
2023-04-18T16:51:13.412Z,19.58
2023-04-18T16:53:40.003Z,19.08
2023-04-18T16:56:08.217Z,19.24
2023-04-18T16:58:36.997Z,19.49
2023-04-18T17:03:42.061Z,18.58
2023-04-18T17:06:18.036Z,19.38
2023-04-18T17:08:44.710Z,18.92
2023-04-18T17:11:21.591Z,18.48
2023-04-18T17:13:54.998Z,18.79
2023-04-18T17:16:21.966Z,18.09
2023-04-18T17:18:48.736Z,19.24
2023-04-18T17:21:23.045Z,18.91
2023-04-18T17:23:55.848Z,18.32
2023-04-18T17:26:24.417Z,18.89
2023-04-18T17:28:54.073Z,18.86
2023-04-18T17:31:27.955Z,18.78
2023-04-18T17:33:57.822Z,18.68
2023-04-18T17:36:24.788Z,18.58
2023-04-18T17:39:10.452Z,17.93
2023-04-18T17:41:46.754Z,18.69
2023-04-18T17:44:13.317Z,18.39
2023-04-18T17:46:42.668Z,18.03
2023-04-18T17:49:13.315Z,18.35
2023-04-18T17:51:48.158Z,17.85
2023-04-18T17:54:17.928Z,18.40
2023-04-18T17:56:50.656Z,18.36
2023-04-18T17:59:48.305Z,18.51
2023-04-18T18:02:15.693Z,18.44
2023-04-18T18:04:48.969Z,18.39
2023-04-18T18:07:19.648Z,18.21
2023-04-18T18:09:46.501Z,18.16
2023-04-18T18:12:18.388Z,17.88
2023-04-18T18:14:49.412Z,18.21
2023-04-18T18:17:50.012Z,18.16
2023-04-18T18:20:17.717Z,18.06
2023-04-18T18:22:49.183Z,18.08
2023-04-18T18:25:16.033Z,17.97
2023-04-18T18:27:47.204Z,17.84
2023-04-18T18:30:14.094Z,17.41
2023-04-18T18:32:43.105Z,17.76
2023-04-18T18:35:19.217Z,17.56
2023-04-18T18:37:54.080Z,17.70
2023-04-18T18:40:21.398Z,17.67
2023-04-18T18:42:56.190Z,16.94
2023-04-18T18:45:23.793Z,17.55
2023-04-18T18:47:52.277Z,17.23
2023-04-18T18:50:22.124Z,17.52
2023-04-18T18:52:48.821Z,17.39
2023-04-18T18:55:16.570Z,17.29
2023-04-18T18:57:53.082Z,17.48
2023-04-18T19:00:25.574Z,17.01
2023-04-18T19:02:56.248Z,17.04
2023-04-18T19:05:23.529Z,17.41
2023-04-18T19:07:57.571Z,16.93
2023-04-18T19:10:37.025Z,17.41
2023-04-18T19:13:04.021Z,17.36
2023-04-18T19:15:35.876Z,17.18
2023-04-18T19:18:02.752Z,17.02
2023-04-18T19:20:32.183Z,17.20
2023-04-18T19:23:40.082Z,17.18
2023-04-18T19:26:09.673Z,17.24
2023-04-18T19:28:39.238Z,17.21
2023-04-18T19:31:06.046Z,17.18
2023-04-18T19:33:32.768Z,16.88
2023-04-18T19:35:59.538Z,17.10
2023-04-18T19:38:26.376Z,16.94
2023-04-18T19:40:55.501Z,16.28
2023-04-18T19:43:22.194Z,16.23
2023-04-18T19:45:50.299Z,16.87
2023-04-18T19:48:27.981Z,16.86
2023-04-18T19:50:59.020Z,16.02
2023-04-18T19:53:25.988Z,16.79
2023-04-18T19:55:56.403Z,16.63
2023-04-18T19:58:46.220Z,15.93
2023-04-18T20:01:24.281Z,15.93
2023-04-18T20:03:58.585Z,16.11
2023-04-18T20:06:29.492Z,16.36
2023-04-18T20:08:59.358Z,16.14
2023-04-18T20:11:29.566Z,16.56
2023-04-18T20:13:56.773Z,16.22
2023-04-18T20:16:24.298Z,15.75
2023-04-18T20:18:54.793Z,16.01
2023-04-18T20:21:22.734Z,16.37
2023-04-18T20:23:49.405Z,16.29
2023-04-18T20:26:18.606Z,16.08
2023-04-18T20:28:45.232Z,15.99
2023-04-18T20:31:20.684Z,15.94
2023-04-18T20:33:47.515Z,15.84
2023-04-18T20:36:16.395Z,15.80
2023-04-18T20:38:44.408Z,15.99
2023-04-18T20:41:15.032Z,15.82
2023-04-18T20:43:53.702Z,15.97
2023-04-18T20:46:20.595Z,15.96
2023-04-18T20:48:47.393Z,15.59
2023-04-18T20:51:41.946Z,15.92
2023-04-18T20:54:08.568Z,15.58
2023-04-18T20:56:51.414Z,15.66
2023-04-18T20:59:26.999Z,15.20
2023-04-18T21:01:54.214Z,14.55
2023-04-18T21:04:21.582Z,15.64
2023-04-18T21:06:52.486Z,15.63
2023-04-18T21:09:26.649Z,15.60
2023-04-18T21:12:01.208Z,15.72
2023-04-18T21:14:33.994Z,15.50
2023-04-18T21:17:00.848Z,15.33
2023-04-18T21:19:27.626Z,15.54
2023-04-18T21:22:12.648Z,15.60
2023-04-18T21:24:45.077Z,15.31
2023-04-18T21:27:14.307Z,15.47
2023-04-18T21:29:40.986Z,15.36
2023-04-18T21:32:07.918Z,15.60
2023-04-18T21:34:34.648Z,14.95
2023-04-18T21:37:14.868Z,15.68
2023-04-18T21:39:42.627Z,15.63
2023-04-18T21:42:18.864Z,14.83
2023-04-18T21:44:45.504Z,15.10
2023-04-18T21:47:12.084Z,14.98
2023-04-18T21:49:38.772Z,15.05
2023-04-18T21:52:27.949Z,14.88
2023-04-18T21:55:00.973Z,14.73
2023-04-18T21:57:37.641Z,15.34
2023-04-18T22:00:21.139Z,14.28
2023-04-18T22:02:57.328Z,13.91
2023-04-18T22:05:26.892Z,14.97
2023-04-18T22:08:03.343Z,13.93
2023-04-18T22:10:30.200Z,15.39
2023-04-18T22:12:57.727Z,15.26
2023-04-18T22:15:27.494Z,15.21
2023-04-18T22:17:54.499Z,14.85
2023-04-18T22:20:25.916Z,15.05
2023-04-18T22:23:03.873Z,15.21
2023-04-18T22:25:34.259Z,15.03
2023-04-18T22:28:13.561Z,14.37
2023-04-18T22:30:54.933Z,14.00
2023-04-18T22:33:31.693Z,14.64
2023-04-18T22:36:06.282Z,14.98
2023-04-18T22:38:33.983Z,14.34
2023-04-18T22:41:13.123Z,13.63
2023-04-18T22:43:39.786Z,14.41
2023-04-18T22:46:10.776Z,13.79
2023-04-18T22:48:38.598Z,14.85
2023-04-18T22:51:23.830Z,14.57
2023-04-18T22:53:50.643Z,14.08
2023-04-18T22:56:25.087Z,14.06
2023-04-18T22:58:51.863Z,14.12
2023-04-18T23:01:21.735Z,13.55
2023-04-18T23:03:48.518Z,13.52
2023-04-18T23:06:24.500Z,14.75
2023-04-18T23:08:59.933Z,14.61
2023-04-18T23:11:37.375Z,15.06
2023-04-18T23:14:04.094Z,14.71
2023-04-18T23:16:33.684Z,14.99
2023-04-18T23:19:00.872Z,14.69
2023-04-18T23:21:32.494Z,14.93
2023-04-18T23:23:59.650Z,14.91
2023-04-18T23:26:29.397Z,14.23
2023-04-18T23:28:57.585Z,14.76
2023-04-18T23:31:29.689Z,14.53
2023-04-18T23:34:16.830Z,14.91
2023-04-18T23:36:43.785Z,15.06
2023-04-18T23:39:42.571Z,15.02
2023-04-18T23:42:12.605Z,14.92
2023-04-18T23:44:44.660Z,15.21
2023-04-18T23:47:11.398Z,15.06
2023-04-18T23:49:38.076Z,14.50
2023-04-18T23:52:07.790Z,15.04
2023-04-18T23:54:37.179Z,15.15
2023-04-18T23:57:03.783Z,14.80
2023-04-18T23:59:32.192Z,15.08
